createdAt,value
2019-01-06T00:00:19.787Z,4.80
2019-01-06T00:03:09.910Z,5.30
2019-01-06T00:05:55.421Z,5.13
2019-01-06T00:08:46.655Z,5.03
2019-01-06T00:11:32.571Z,5.73
2019-01-06T00:14:34.733Z,6.10
2019-01-06T00:17:20.109Z,6.07
2019-01-06T00:20:00.779Z,5.50
2019-01-06T00:22:45.984Z,5.70
2019-01-06T00:25:42.065Z,6.93
2019-01-06T00:28:29.247Z,6.37
2019-01-06T00:31:19.109Z,6.73
2019-01-06T00:34:04.532Z,6.47
2019-01-06T00:36:50.104Z,5.77
2019-01-06T00:39:43.135Z,5.07
2019-01-06T00:42:34.845Z,4.73
2019-01-06T00:45:20.326Z,5.30
2019-01-06T00:48:05.943Z,5.43
2019-01-06T00:50:59.192Z,4.77
2019-01-06T00:54:02.156Z,4.30
2019-01-06T00:56:59.607Z,4.47
2019-01-06T00:59:45.054Z,4.17
2019-01-06T01:02:38.617Z,4.50
2019-01-06T01:05:24.302Z,4.67
2019-01-06T01:08:04.983Z,4.63
2019-01-06T01:10:52.156Z,5.40
2019-01-06T01:13:45.247Z,5.23
2019-01-06T01:16:30.944Z,5.67
2019-01-06T01:19:16.692Z,5.13
2019-01-06T01:22:12.926Z,5.47
2019-01-06T01:25:08.928Z,6.00
2019-01-06T01:27:58.737Z,5.37
2019-01-06T01:30:46.797Z,5.43
2019-01-06T01:33:42.939Z,5.53
2019-01-06T01:36:39.040Z,5.50
2019-01-06T01:39:29.140Z,6.27
2019-01-06T01:42:19.573Z,4.87
2019-01-06T01:45:16.016Z,4.83
2019-01-06T01:48:01.369Z,5.10
2019-01-06T01:50:51.506Z,4.27
2019-01-06T01:53:41.644Z,5.00
2019-01-06T01:56:31.679Z,5.23
2019-01-06T01:59:18.850Z,5.77
2019-01-06T02:02:06.083Z,5.37
2019-01-06T02:05:02.047Z,6.00
2019-01-06T02:08:07.285Z,5.50
2019-01-06T02:10:59.950Z,5.87
2019-01-06T02:14:01.949Z,5.27
2019-01-06T02:16:51.894Z,5.27
2019-01-06T02:19:43.456Z,5.37
2019-01-06T02:22:29.058Z,4.80
2019-01-06T02:25:19.084Z,4.60
2019-01-06T02:28:04.640Z,5.53
2019-01-06T02:30:51.728Z,5.10
2019-01-06T02:33:37.180Z,3.93
2019-01-06T02:36:30.322Z,3.70
2019-01-06T02:39:20.175Z,3.90
2019-01-06T02:42:07.354Z,3.30
2019-01-06T02:44:57.221Z,3.23
2019-01-06T02:47:42.556Z,3.17
2019-01-06T02:50:44.668Z,2.80
2019-01-06T02:53:30.272Z,2.97
2019-01-06T02:56:17.419Z,3.03
2019-01-06T02:58:57.667Z,3.50
2019-01-06T03:01:43.262Z,2.83
2019-01-06T03:04:39.366Z,2.73
2019-01-06T03:07:29.411Z,3.00
2019-01-06T03:10:22.525Z,3.07
2019-01-06T03:13:08.091Z,3.30
2019-01-06T03:16:04.135Z,3.20
2019-01-06T03:18:49.720Z,3.10
2019-01-06T03:21:30.179Z,3.23
2019-01-06T03:24:15.928Z,3.07
2019-01-06T03:27:01.435Z,3.37
2019-01-06T03:29:54.524Z,3.30
2019-01-06T03:32:33.981Z,3.40
2019-01-06T03:35:24.164Z,2.80
2019-01-06T03:38:14.047Z,3.13
2019-01-06T03:41:13.204Z,3.23
2019-01-06T03:44:06.063Z,3.43
2019-01-06T03:46:59.272Z,3.57
2019-01-06T03:49:46.396Z,3.13
2019-01-06T03:52:31.858Z,3.10
2019-01-06T03:55:17.398Z,2.97
2019-01-06T03:58:02.899Z,2.83
2019-01-06T04:00:58.921Z,2.80
2019-01-06T04:03:55.066Z,3.10
2019-01-06T04:06:45.231Z,3.00
2019-01-06T04:09:44.430Z,3.37
2019-01-06T04:12:34.491Z,3.00
2019-01-06T04:15:39.766Z,3.83
2019-01-06T04:18:25.505Z,3.57
2019-01-06T04:21:24.783Z,3.30
2019-01-06T04:24:17.960Z,3.37
2019-01-06T04:27:05.069Z,2.70
2019-01-06T04:29:50.927Z,3.47
2019-01-06T04:32:38.075Z,2.80
2019-01-06T04:35:23.976Z,3.10
2019-01-06T04:38:19.898Z,3.47
2019-01-06T04:41:05.783Z,3.30
2019-01-06T04:43:55.883Z,3.70
2019-01-06T04:46:41.633Z,3.53
2019-01-06T04:49:33.289Z,3.97
2019-01-06T04:52:18.873Z,3.93
2019-01-06T04:55:05.112Z,3.43
2019-01-06T04:58:01.195Z,4.37
2019-01-06T05:00:46.592Z,3.90
2019-01-06T05:03:48.824Z,3.50
2019-01-06T05:06:41.802Z,3.53
2019-01-06T05:09:27.405Z,3.23
2019-01-06T05:12:14.491Z,3.43
2019-01-06T05:15:10.394Z,3.27
2019-01-06T05:18:05.904Z,3.30
2019-01-06T05:20:56.043Z,2.90
2019-01-06T05:23:49.247Z,2.87
2019-01-06T05:26:44.251Z,3.17
2019-01-06T05:29:29.756Z,2.90
2019-01-06T05:32:16.948Z,2.97
2019-01-06T05:35:06.981Z,2.90
2019-01-06T05:37:52.732Z,3.00
2019-01-06T05:40:47.614Z,2.67
2019-01-06T05:43:34.752Z,2.40
2019-01-06T05:46:20.216Z,2.77
2019-01-06T05:49:05.956Z,2.97
2019-01-06T05:51:53.136Z,2.87
2019-01-06T05:54:37.889Z,3.13
2019-01-06T05:57:19.771Z,3.33
2019-01-06T06:00:09.494Z,2.83
2019-01-06T06:02:50.704Z,2.87
2019-01-06T06:05:43.659Z,3.00
2019-01-06T06:08:28.903Z,3.10
2019-01-06T06:11:31.048Z,3.40
2019-01-06T06:14:25.952Z,3.13
2019-01-06T06:17:11.468Z,2.77
2019-01-06T06:20:01.407Z,2.87
2019-01-06T06:22:51.086Z,2.40
2019-01-06T06:25:44.084Z,2.50
2019-01-06T06:28:29.574Z,3.20
2019-01-06T06:31:14.944Z,2.60
2019-01-06T06:34:00.639Z,3.00
2019-01-06T06:36:51.440Z,2.40
2019-01-06T06:39:36.532Z,2.77
2019-01-06T06:42:29.687Z,2.77
2019-01-06T06:45:19.162Z,2.70
2019-01-06T06:48:24.184Z,2.47
2019-01-06T06:51:23.451Z,2.50
2019-01-06T06:54:13.314Z,2.87
2019-01-06T06:57:06.440Z,2.40
2019-01-06T07:00:11.027Z,2.70
2019-01-06T07:03:09.228Z,3.40
2019-01-06T07:06:01.455Z,3.27
2019-01-06T07:08:41.573Z,2.87
2019-01-06T07:11:27.094Z,2.80
2019-01-06T07:14:17.223Z,2.70
2019-01-06T07:17:46.296Z,3.00
2019-01-06T07:20:46.957Z,2.80
2019-01-06T07:23:32.762Z,2.93
2019-01-06T07:26:18.387Z,2.97
2019-01-06T07:29:20.618Z,3.27
2019-01-06T07:32:16.890Z,3.40
2019-01-06T07:35:16.107Z,3.13
2019-01-06T07:38:01.553Z,3.27
2019-01-06T07:40:47.252Z,3.20
2019-01-06T07:43:24.748Z,3.60
2019-01-06T07:46:17.923Z,3.07
2019-01-06T07:49:23.112Z,2.77
2019-01-06T07:52:08.339Z,3.43
2019-01-06T07:54:50.410Z,3.43
2019-01-06T07:57:29.540Z,3.30
2019-01-06T08:00:19.604Z,3.10
2019-01-06T08:03:12.576Z,3.17
2019-01-06T08:06:14.596Z,3.77
2019-01-06T08:09:01.736Z,3.93
2019-01-06T08:11:54.521Z,3.97
2019-01-06T08:14:47.619Z,4.27
2019-01-06T08:17:34.730Z,3.83
2019-01-06T08:20:32.919Z,3.83
2019-01-06T08:23:26.075Z,3.70
2019-01-06T08:26:19.109Z,4.07
2019-01-06T08:29:12.104Z,3.70
2019-01-06T08:31:50.909Z,4.07
2019-01-06T08:34:36.351Z,3.47
2019-01-06T08:37:29.441Z,4.10
2019-01-06T08:40:31.453Z,4.90
2019-01-06T08:43:18.522Z,4.70
2019-01-06T08:46:04.043Z,5.43
2019-01-06T08:48:49.658Z,4.73
2019-01-06T08:51:51.881Z,5.40
2019-01-06T08:54:30.527Z,4.53
2019-01-06T08:57:16.063Z,4.43
2019-01-06T09:00:03.155Z,4.60
2019-01-06T09:02:53.078Z,4.40
2019-01-06T09:05:43.027Z,5.27
2019-01-06T09:08:28.494Z,4.70
2019-01-06T09:11:14.053Z,4.27
2019-01-06T09:13:54.286Z,3.73
2019-01-06T09:16:38.272Z,5.60
2019-01-06T09:19:23.589Z,4.07
2019-01-06T09:22:09.050Z,3.93
2019-01-06T09:24:56.191Z,4.50
2019-01-06T09:27:43.372Z,3.73
2019-01-06T09:30:25.865Z,4.30
2019-01-06T09:33:11.579Z,3.67
2019-01-06T09:35:57.214Z,3.60
2019-01-06T09:38:42.951Z,3.30
2019-01-06T09:41:32.080Z,3.43
2019-01-06T09:44:25.148Z,3.50
2019-01-06T09:47:12.016Z,3.20
2019-01-06T09:50:08.175Z,2.97
2019-01-06T09:52:53.904Z,2.90
2019-01-06T09:55:39.682Z,2.30
2019-01-06T09:58:25.324Z,2.20
2019-01-06T10:01:21.087Z,2.40
2019-01-06T10:04:08.201Z,2.03
2019-01-06T10:06:55.328Z,2.00
2019-01-06T10:09:39.856Z,1.70
2019-01-06T10:12:29.933Z,1.53
2019-01-06T10:15:26.004Z,1.73
2019-01-06T10:18:11.308Z,1.70
2019-01-06T10:20:57.075Z,1.80
2019-01-06T10:23:44.158Z,1.63
2019-01-06T10:26:36.810Z,1.73
2019-01-06T10:29:26.803Z,1.60
2019-01-06T10:32:16.823Z,1.43
2019-01-06T10:35:03.955Z,1.50
2019-01-06T10:38:00.231Z,1.70
2019-01-06T10:40:59.180Z,1.63
2019-01-06T10:43:52.239Z,1.90
2019-01-06T10:46:42.307Z,3.10
2019-01-06T10:49:22.803Z,1.83
2019-01-06T10:52:08.291Z,1.50
2019-01-06T10:54:53.948Z,1.80
2019-01-06T10:57:41.107Z,1.80
2019-01-06T11:00:25.115Z,1.70
2019-01-06T11:03:10.605Z,1.53
2019-01-06T11:05:56.263Z,1.50
2019-01-06T11:08:41.927Z,1.77
2019-01-06T11:11:35.072Z,1.80
2019-01-06T11:14:11.947Z,2.10
2019-01-06T11:16:57.291Z,2.17
2019-01-06T11:19:43.874Z,2.10
2019-01-06T11:22:29.610Z,2.20
2019-01-06T11:25:12.147Z,2.07
2019-01-06T11:28:08.082Z,2.40
2019-01-06T11:30:55.264Z,1.70
2019-01-06T11:33:51.038Z,2.00
2019-01-06T11:36:41.015Z,1.90
2019-01-06T11:39:39.980Z,2.23
2019-01-06T11:42:39.143Z,2.30
2019-01-06T11:45:24.500Z,2.73
2019-01-06T11:48:20.745Z,2.20
2019-01-06T11:51:19.587Z,2.40
2019-01-06T11:54:09.565Z,1.93
2019-01-06T11:56:56.649Z,2.50
2019-01-06T11:59:42.132Z,2.47
2019-01-06T12:02:27.824Z,2.40
2019-01-06T12:05:30.057Z,3.00
2019-01-06T12:08:17.163Z,2.53
2019-01-06T12:11:02.641Z,2.90
2019-01-06T12:14:00.231Z,2.40
2019-01-06T12:16:47.475Z,2.70
2019-01-06T12:19:33.527Z,2.70
2019-01-06T12:22:14.223Z,2.80
2019-01-06T12:24:59.843Z,2.27
2019-01-06T12:27:46.997Z,2.60
2019-01-06T12:30:32.318Z,2.27
2019-01-06T12:33:22.207Z,2.80
2019-01-06T12:36:07.847Z,2.13
2019-01-06T12:39:03.752Z,2.70
2019-01-06T12:41:49.532Z,2.97
2019-01-06T12:44:35.105Z,3.07
2019-01-06T12:47:20.824Z,2.20
2019-01-06T12:50:17.020Z,2.07
2019-01-06T12:53:16.641Z,2.10
2019-01-06T12:56:16.641Z,3.07
2019-01-06T12:59:15.524Z,2.00
2019-01-06T13:02:05.762Z,1.60
2019-01-06T13:05:01.718Z,1.70
2019-01-06T13:07:41.527Z,2.17
2019-01-06T13:10:31.587Z,1.70
2019-01-06T13:13:17.263Z,1.77
2019-01-06T13:16:05.302Z,1.43
2019-01-06T13:19:05.616Z,1.73
2019-01-06T13:22:02.448Z,1.40
2019-01-06T13:25:04.556Z,1.33
2019-01-06T13:28:06.171Z,1.33
2019-01-06T13:30:53.814Z,1.50
2019-01-06T13:33:40.375Z,1.30
2019-01-06T13:36:31.033Z,1.50
2019-01-06T13:39:17.418Z,1.27
2019-01-06T13:42:16.796Z,1.40
2019-01-06T13:45:02.302Z,0.87
2019-01-06T13:47:49.531Z,1.20
2019-01-06T13:50:39.611Z,1.10
2019-01-06T13:53:25.487Z,1.37
2019-01-06T13:56:11.101Z,1.37
2019-01-06T13:59:10.303Z,1.30
2019-01-06T14:02:15.448Z,1.10
2019-01-06T14:05:02.566Z,1.20
2019-01-06T14:07:49.766Z,1.10
2019-01-06T14:10:37.095Z,0.93
2019-01-06T14:13:33.112Z,0.90
2019-01-06T14:16:20.297Z,1.20
2019-01-06T14:19:16.672Z,0.93
2019-01-06T14:22:21.753Z,0.90
2019-01-06T14:25:07.455Z,1.00
2019-01-06T14:28:00.420Z,1.00
2019-01-06T14:31:06.128Z,1.40
2019-01-06T14:33:48.716Z,0.90
2019-01-06T14:36:35.152Z,1.30
2019-01-06T14:39:21.355Z,1.13
2019-01-06T14:42:07.031Z,1.10
2019-01-06T14:44:49.460Z,1.27
2019-01-06T14:47:48.395Z,1.40
2019-01-06T14:50:33.894Z,1.50
2019-01-06T14:53:15.768Z,1.10
2019-01-06T14:56:11.731Z,1.53
2019-01-06T14:58:53.496Z,1.77
2019-01-06T15:01:49.651Z,1.40
2019-01-06T15:04:28.704Z,1.70
2019-01-06T15:07:18.471Z,1.40
2019-01-06T15:10:23.650Z,1.70
2019-01-06T15:13:22.661Z,1.57
2019-01-06T15:16:21.436Z,1.53
2019-01-06T15:19:17.384Z,1.50
2019-01-06T15:22:12.421Z,1.97
2019-01-06T15:24:57.856Z,1.70
2019-01-06T15:27:40.693Z,1.50
2019-01-06T15:30:39.937Z,1.60
2019-01-06T15:33:25.427Z,1.77
2019-01-06T15:36:11.112Z,1.80
2019-01-06T15:38:56.592Z,1.57
2019-01-06T15:41:46.702Z,1.40
2019-01-06T15:44:35.222Z,1.40
2019-01-06T15:47:22.395Z,1.13
2019-01-06T15:50:15.290Z,1.47
2019-01-06T15:53:11.390Z,4.23
2019-01-06T15:55:57.174Z,1.53
2019-01-06T15:58:43.088Z,1.27
2019-01-06T16:01:42.067Z,1.47
2019-01-06T16:04:27.452Z,1.30
2019-01-06T16:07:14.070Z,1.30
2019-01-06T16:10:10.172Z,0.90
2019-01-06T16:12:54.785Z,1.23
2019-01-06T16:15:41.923Z,1.20
2019-01-06T16:18:30.345Z,1.20
2019-01-06T16:21:22.586Z,1.00
2019-01-06T16:24:12.430Z,1.20
2019-01-06T16:26:59.553Z,0.93
2019-01-06T16:29:39.975Z,1.10
2019-01-06T16:32:42.184Z,1.00
2019-01-06T16:35:32.016Z,1.30
2019-01-06T16:38:17.793Z,1.33
2019-01-06T16:41:05.583Z,1.30
2019-01-06T16:44:01.935Z,1.03
2019-01-06T16:47:03.873Z,1.70
2019-01-06T16:49:49.510Z,1.87
2019-01-06T16:52:39.684Z,1.83
2019-01-06T16:55:25.461Z,1.30
2019-01-06T16:58:11.258Z,2.73
2019-01-06T17:01:07.563Z,1.20
2019-01-06T17:04:00.663Z,1.70
2019-01-06T17:06:45.363Z,1.53
2019-01-06T17:09:30.732Z,1.40
2019-01-06T17:12:27.012Z,1.17
2019-01-06T17:15:19.897Z,1.30
2019-01-06T17:18:03.822Z,1.30
2019-01-06T17:20:50.921Z,1.23
2019-01-06T17:23:36.436Z,1.20
2019-01-06T17:26:22.216Z,1.70
2019-01-06T17:29:07.862Z,1.50
2019-01-06T17:32:11.899Z,1.97
2019-01-06T17:34:59.031Z,2.87
2019-01-06T17:37:46.209Z,3.10
2019-01-06T17:40:31.935Z,3.20
2019-01-06T17:43:18.573Z,4.00
2019-01-06T17:46:23.876Z,4.30
2019-01-06T17:49:09.503Z,5.00
2019-01-06T17:51:54.912Z,4.27
2019-01-06T17:54:50.995Z,5.37
2019-01-06T17:57:39.240Z,6.00
2019-01-06T18:00:26.039Z,5.33
2019-01-06T18:03:11.905Z,5.60
2019-01-06T18:05:53.460Z,6.57
2019-01-06T18:08:52.316Z,6.10
2019-01-06T18:11:37.820Z,6.70
2019-01-06T18:14:23.477Z,6.47
2019-01-06T18:17:16.723Z,6.33
2019-01-06T18:20:07.133Z,6.47
2019-01-06T18:22:54.347Z,6.30
2019-01-06T18:25:40.006Z,5.73
2019-01-06T18:28:21.423Z,6.27
2019-01-06T18:31:07.012Z,4.97
2019-01-06T18:33:57.174Z,5.30
2019-01-06T18:36:43.004Z,5.33
2019-01-06T18:39:30.162Z,5.27
2019-01-06T18:42:15.899Z,5.30
2019-01-06T18:45:08.939Z,5.50
2019-01-06T18:47:53.219Z,5.27
2019-01-06T18:50:52.075Z,5.60
2019-01-06T18:53:54.158Z,5.13
2019-01-06T18:56:41.627Z,4.93
2019-01-06T18:59:24.799Z,4.43
2019-01-06T19:02:18.533Z,5.30
2019-01-06T19:05:04.802Z,5.70
2019-01-06T19:07:50.262Z,6.10
2019-01-06T19:10:44.891Z,6.00
2019-01-06T19:13:26.668Z,5.23
2019-01-06T19:16:28.504Z,5.10
2019-01-06T19:19:21.535Z,5.73
2019-01-06T19:22:06.941Z,5.70
2019-01-06T19:24:52.716Z,6.50
2019-01-06T19:27:39.809Z,5.47
2019-01-06T19:30:27.072Z,5.00
2019-01-06T19:33:22.980Z,5.67
2019-01-06T19:36:08.773Z,5.37
2019-01-06T19:38:51.971Z,5.60
2019-01-06T19:41:39.101Z,5.77
2019-01-06T19:44:24.937Z,5.53
2019-01-06T19:47:13.020Z,6.60
2019-01-06T19:49:53.552Z,6.93
2019-01-06T19:52:43.723Z,7.20
2019-01-06T19:55:33.705Z,8.57
2019-01-06T19:58:19.347Z,7.80
2019-01-06T20:01:01.859Z,7.03
2019-01-06T20:03:45.454Z,7.27
2019-01-06T20:06:31.151Z,8.23
2019-01-06T20:09:20.802Z,7.53
2019-01-06T20:12:07.909Z,7.83
2019-01-06T20:14:57.792Z,7.93
2019-01-06T20:18:02.730Z,8.43
2019-01-06T20:20:55.708Z,8.70
2019-01-06T20:23:41.146Z,8.30
2019-01-06T20:26:26.875Z,8.20
2019-01-06T20:29:12.556Z,8.23
2019-01-06T20:32:02.635Z,9.07
2019-01-06T20:34:52.538Z,8.90
2019-01-06T20:37:38.092Z,8.50
2019-01-06T20:40:32.557Z,8.97
2019-01-06T20:43:18.361Z,9.30
2019-01-06T20:46:04.039Z,9.37
2019-01-06T20:48:57.140Z,9.17
2019-01-06T20:51:41.455Z,9.77
2019-01-06T20:54:36.153Z,9.80
2019-01-06T20:57:26.410Z,10.13
2019-01-06T21:00:08.535Z,9.67
2019-01-06T21:03:10.731Z,9.20
2019-01-06T21:06:00.965Z,9.17
2019-01-06T21:09:03.170Z,8.67
2019-01-06T21:11:45.200Z,10.97
2019-01-06T21:14:32.421Z,9.27
2019-01-06T21:17:19.524Z,9.40
2019-01-06T21:20:04.863Z,9.23
2019-01-06T21:22:58.248Z,9.30
2019-01-06T21:25:42.221Z,8.80
2019-01-06T21:28:28.011Z,9.43
2019-01-06T21:31:13.719Z,9.40
2019-01-06T21:33:59.324Z,8.50
2019-01-06T21:36:40.924Z,8.90
2019-01-06T21:39:26.358Z,9.37
2019-01-06T21:42:19.300Z,9.00
2019-01-06T21:45:15.573Z,8.40
2019-01-06T21:47:57.789Z,9.80
2019-01-06T21:50:52.761Z,9.07
2019-01-06T21:53:38.179Z,8.60
2019-01-06T21:56:25.070Z,9.57
2019-01-06T21:59:06.726Z,9.87
2019-01-06T22:01:52.179Z,9.80
2019-01-06T22:04:48.414Z,9.70
2019-01-06T22:07:47.422Z,8.80
2019-01-06T22:10:52.735Z,9.37
2019-01-06T22:13:38.259Z,9.40
2019-01-06T22:16:34.201Z,10.00
2019-01-06T22:19:19.614Z,9.87
2019-01-06T22:22:12.316Z,9.63
2019-01-06T22:25:17.712Z,9.07
2019-01-06T22:28:10.542Z,9.47
2019-01-06T22:30:56.058Z,9.07
2019-01-06T22:33:54.933Z,9.57
2019-01-06T22:36:59.783Z,9.63
2019-01-06T22:39:46.872Z,9.33
2019-01-06T22:42:30.872Z,9.13
2019-01-06T22:45:18.011Z,10.37
2019-01-06T22:48:23.324Z,9.83
2019-01-06T22:51:13.212Z,9.47
2019-01-06T22:53:59.160Z,11.47
2019-01-06T22:56:44.694Z,10.10
2019-01-06T22:59:30.290Z,10.73
2019-01-06T23:02:15.873Z,9.57
2019-01-06T23:05:18.018Z,10.30
2019-01-06T23:08:10.099Z,10.10
2019-01-06T23:11:12.704Z,10.70
2019-01-06T23:13:58.048Z,10.83
2019-01-06T23:16:51.061Z,10.63
2019-01-06T23:19:32.462Z,10.20
2019-01-06T23:22:22.467Z,10.00
2019-01-06T23:25:18.527Z,10.37
2019-01-06T23:28:23.739Z,9.37
2019-01-06T23:31:09.046Z,9.80
2019-01-06T23:33:55.840Z,9.50
2019-01-06T23:36:48.980Z,9.57
2019-01-06T23:39:34.825Z,9.13
2019-01-06T23:42:20.432Z,9.97
2019-01-06T23:45:22.656Z,10.77
2019-01-06T23:48:18.168Z,9.57
2019-01-06T23:51:05.451Z,9.33
2019-01-06T23:54:02.258Z,9.20
2019-01-06T23:56:47.738Z,9.40
2019-01-06T23:59:40.954Z,9.70
